createdAt,value
2022-11-01T00:01:53.233Z,85.36
2022-11-01T00:04:20.212Z,85.33
2022-11-01T00:06:46.993Z,85.55
2022-11-01T00:09:16.131Z,85.62
2022-11-01T00:11:42.827Z,85.82
2022-11-01T00:14:12.861Z,85.67
2022-11-01T00:16:39.579Z,85.73
2022-11-01T00:19:06.041Z,85.73
2022-11-01T00:21:32.592Z,85.88
2022-11-01T00:24:01.537Z,85.94
2022-11-01T00:26:28.388Z,86.07
2022-11-01T00:28:55.005Z,86.09
2022-11-01T00:31:21.822Z,86.39
2022-11-01T00:33:51.237Z,86.57
2022-11-01T00:36:17.732Z,86.48
2022-11-01T00:38:44.283Z,86.32
2022-11-01T00:41:11.090Z,86.59
2022-11-01T00:43:37.616Z,86.66
2022-11-01T00:46:06.946Z,86.44
2022-11-01T00:48:33.527Z,86.66
2022-11-01T00:51:00.064Z,86.67
2022-11-01T00:53:26.833Z,86.59
2022-11-01T00:55:53.434Z,86.71
2022-11-01T00:58:19.928Z,86.81
2022-11-01T01:00:48.157Z,86.83
2022-11-01T01:03:17.233Z,87.03
2022-11-01T01:05:43.771Z,86.79
2022-11-01T01:08:10.485Z,87.06
2022-11-01T01:10:37.047Z,86.95
2022-11-01T01:13:04.426Z,87.00
2022-11-01T01:15:31.269Z,87.24
2022-11-01T01:18:00.433Z,87.25
2022-11-01T01:20:27.253Z,87.39
2022-11-01T01:22:54.054Z,87.25
2022-11-01T01:25:21.110Z,87.20
2022-11-01T01:27:47.834Z,87.78
2022-11-01T01:30:15.031Z,87.47
2022-11-01T01:32:42.288Z,87.63
2022-11-01T01:35:09.650Z,87.51
2022-11-01T01:37:38.585Z,87.63
2022-11-01T01:40:07.118Z,87.62
2022-11-01T01:42:38.807Z,87.67
2022-11-01T01:45:05.618Z,87.61
2022-11-01T01:47:38.580Z,87.81
2022-11-01T01:50:07.843Z,88.00
2022-11-01T01:52:47.996Z,87.70
2022-11-01T01:55:20.325Z,87.74
2022-11-01T01:57:51.472Z,87.79
2022-11-01T02:00:18.495Z,87.55
2022-11-01T02:02:45.435Z,87.57
2022-11-01T02:05:39.176Z,87.60
2022-11-01T02:08:07.034Z,87.12
2022-11-01T02:10:36.241Z,87.39
2022-11-01T02:13:10.948Z,87.28
2022-11-01T02:15:48.035Z,87.49
2022-11-01T02:18:56.193Z,87.24
2022-11-01T02:21:34.985Z,87.16
2022-11-01T02:24:16.486Z,87.44
2022-11-01T02:26:49.219Z,87.51
2022-11-01T02:29:38.985Z,87.45
2022-11-01T02:32:29.375Z,87.48
2022-11-01T02:35:19.410Z,87.49
2022-11-01T02:37:59.356Z,87.67
2022-11-01T02:40:53.645Z,87.66
2022-11-01T02:43:33.387Z,87.61
2022-11-01T02:46:23.161Z,87.54
2022-11-01T02:48:49.889Z,87.71
2022-11-01T02:51:19.990Z,87.96
2022-11-01T02:53:46.568Z,87.96
2022-11-01T02:56:17.593Z,88.05
2022-11-01T02:58:46.724Z,87.91
2022-11-01T03:01:21.385Z,88.10
2022-11-01T03:03:51.268Z,87.89
2022-11-01T03:06:26.676Z,87.84
2022-11-01T03:09:07.290Z,87.85
2022-11-01T03:11:55.253Z,88.00
2022-11-01T03:14:40.840Z,87.61
2022-11-01T03:17:23.213Z,87.36
2022-11-01T03:20:18.364Z,87.42
2022-11-01T03:22:50.035Z,87.06
2022-11-01T03:25:39.896Z,86.54
2022-11-01T03:28:14.083Z,86.45
2022-11-01T03:30:44.555Z,86.25
2022-11-01T03:33:16.120Z,86.06
2022-11-01T03:35:47.707Z,85.62
2022-11-01T03:38:19.168Z,85.25
2022-11-01T03:40:52.347Z,85.01
2022-11-01T03:43:20.900Z,84.60
2022-11-01T03:45:47.597Z,84.06
2022-11-01T03:48:14.348Z,83.64
2022-11-01T03:50:49.279Z,83.30
2022-11-01T03:53:16.133Z,83.24
2022-11-01T03:55:45.567Z,83.23
2022-11-01T03:58:12.199Z,82.84
2022-11-01T04:00:41.781Z,82.16
2022-11-01T04:03:09.885Z,82.03
2022-11-01T04:05:37.951Z,81.29
2022-11-01T04:08:08.571Z,80.78
2022-11-01T04:10:35.085Z,80.41
2022-11-01T04:13:02.282Z,79.70
2022-11-01T04:15:50.152Z,79.62
2022-11-01T04:18:42.836Z,79.30
2022-11-01T04:21:13.364Z,79.25
2022-11-01T04:23:40.488Z,79.12
2022-11-01T04:26:07.513Z,79.01
2022-11-01T04:28:34.301Z,78.89
2022-11-01T04:31:00.973Z,79.01
2022-11-01T04:33:27.482Z,79.08
2022-11-01T04:35:57.120Z,78.77
2022-11-01T04:38:23.860Z,79.03
2022-11-01T04:40:50.385Z,78.98
2022-11-01T04:43:17.085Z,78.91
2022-11-01T04:45:43.675Z,78.71
2022-11-01T04:48:21.626Z,78.91
2022-11-01T04:50:48.453Z,78.70
2022-11-01T04:53:15.305Z,78.69
2022-11-01T04:55:41.811Z,78.71
2022-11-01T04:58:09.860Z,78.76
2022-11-01T05:00:38.071Z,78.59
2022-11-01T05:03:07.289Z,78.44
2022-11-01T05:05:34.752Z,78.63
2022-11-01T05:08:09.109Z,78.37
2022-11-01T05:10:40.517Z,78.31
2022-11-01T05:13:07.874Z,78.54
2022-11-01T05:15:40.184Z,78.19
2022-11-01T05:18:07.135Z,78.20
2022-11-01T05:20:33.705Z,78.36
2022-11-01T05:23:02.030Z,77.71
2022-11-01T05:25:31.481Z,77.86
2022-11-01T05:28:02.696Z,77.90
2022-11-01T05:30:29.549Z,77.45
2022-11-01T05:33:00.505Z,77.03
2022-11-01T05:35:28.813Z,77.21
2022-11-01T05:37:56.270Z,77.18
2022-11-01T05:40:24.184Z,76.68
2022-11-01T05:42:51.108Z,76.58
2022-11-01T05:45:20.407Z,76.49
2022-11-01T05:47:47.059Z,75.94
2022-11-01T05:50:17.936Z,75.88
2022-11-01T05:52:44.600Z,76.09
2022-11-01T05:55:11.251Z,75.94
2022-11-01T05:57:38.345Z,75.85
2022-11-01T06:00:08.467Z,75.94
2022-11-01T06:02:35.092Z,76.32
2022-11-01T06:05:03.284Z,76.26
2022-11-01T06:07:30.375Z,76.57
2022-11-01T06:09:56.909Z,76.66
2022-11-01T06:12:25.542Z,76.53
2022-11-01T06:14:52.300Z,76.77
2022-11-01T06:17:21.136Z,76.72
2022-11-01T06:19:47.672Z,76.57
2022-11-01T06:22:16.571Z,75.97
2022-11-01T06:24:45.378Z,75.95
2022-11-01T06:27:12.837Z,75.36
2022-11-01T06:29:39.625Z,75.15
2022-11-01T06:32:08.487Z,74.95
2022-11-01T06:34:35.035Z,74.82
2022-11-01T06:37:02.243Z,74.67
2022-11-01T06:39:28.752Z,74.62
2022-11-01T06:41:55.261Z,74.32
2022-11-01T06:44:22.141Z,74.38
2022-11-01T06:46:48.672Z,73.94
2022-11-01T06:49:19.210Z,73.95
2022-11-01T06:51:46.316Z,74.03
2022-11-01T06:54:15.342Z,74.07
2022-11-01T06:56:41.880Z,74.42
2022-11-01T06:59:10.657Z,74.70
2022-11-01T07:01:37.332Z,74.58
2022-11-01T07:04:04.198Z,74.51
2022-11-01T07:06:31.136Z,74.67
2022-11-01T07:09:00.981Z,74.59
2022-11-01T07:11:31.663Z,74.25
2022-11-01T07:14:01.156Z,74.41
2022-11-01T07:16:27.787Z,74.45
2022-11-01T07:18:54.458Z,74.49
2022-11-01T07:21:21.610Z,74.24
2022-11-01T07:23:48.069Z,74.32
2022-11-01T07:26:14.706Z,74.15
2022-11-01T07:28:41.319Z,74.01
2022-11-01T07:31:10.311Z,73.93
2022-11-01T07:33:36.986Z,73.78
2022-11-01T07:36:06.459Z,73.65
2022-11-01T07:38:32.989Z,73.39
2022-11-01T07:40:59.572Z,73.52
2022-11-01T07:43:26.226Z,73.52
2022-11-01T07:45:53.421Z,73.17
2022-11-01T07:48:20.832Z,73.05
2022-11-01T07:50:47.361Z,73.04
2022-11-01T07:53:17.182Z,72.91
2022-11-01T07:55:44.974Z,72.79
2022-11-01T07:58:17.106Z,72.62
2022-11-01T08:00:44.487Z,72.35
2022-11-01T08:03:16.253Z,72.34
2022-11-01T08:05:43.854Z,72.46
2022-11-01T08:08:14.018Z,72.09
2022-11-01T08:10:42.212Z,72.05
2022-11-01T08:13:21.720Z,71.84
2022-11-01T08:15:49.773Z,71.68
2022-11-01T08:18:19.117Z,71.76
2022-11-01T08:20:45.792Z,71.43
2022-11-01T08:23:12.767Z,71.47
2022-11-01T08:25:39.623Z,71.03
2022-11-01T08:28:12.056Z,71.22
2022-11-01T08:30:40.574Z,71.23
2022-11-01T08:33:07.282Z,70.90
2022-11-01T08:35:34.488Z,70.85
2022-11-01T08:38:04.127Z,70.37
2022-11-01T08:40:32.277Z,70.33
2022-11-01T08:42:59.362Z,70.63
2022-11-01T08:45:26.961Z,70.21
2022-11-01T08:47:58.279Z,70.46
2022-11-01T08:50:25.212Z,70.43
2022-11-01T08:52:52.019Z,70.13
2022-11-01T08:55:18.652Z,69.12
2022-11-01T08:57:45.175Z,67.48
2022-11-01T09:00:16.426Z,66.28
2022-11-01T09:02:43.218Z,65.54
2022-11-01T09:05:12.065Z,65.19
2022-11-01T09:07:38.712Z,64.55
2022-11-01T09:10:06.304Z,64.22
2022-11-01T09:12:33.142Z,64.03
2022-11-01T09:15:02.084Z,64.08
2022-11-01T09:17:29.061Z,64.03
2022-11-01T09:19:55.930Z,63.97
2022-11-01T09:22:23.192Z,63.75
2022-11-01T09:24:49.799Z,63.58
2022-11-01T09:27:16.387Z,63.59
2022-11-01T09:29:45.264Z,63.42
2022-11-01T09:32:14.553Z,63.18
2022-11-01T09:34:41.092Z,63.45
2022-11-01T09:37:07.579Z,63.25
2022-11-01T09:39:34.110Z,63.22
2022-11-01T09:42:10.543Z,63.35
2022-11-01T09:44:43.986Z,63.38
2022-11-01T09:47:21.437Z,63.39
2022-11-01T09:49:52.721Z,63.31
2022-11-01T09:52:22.365Z,63.47
2022-11-01T09:54:49.794Z,63.46
2022-11-01T09:57:26.709Z,63.28
2022-11-01T10:00:07.924Z,63.44
2022-11-01T10:03:14.412Z,63.55
2022-11-01T10:05:54.835Z,63.36
2022-11-01T10:08:37.085Z,63.26
2022-11-01T10:11:05.847Z,63.18
2022-11-01T10:13:50.916Z,62.98
2022-11-01T10:16:23.387Z,63.13
2022-11-01T10:19:21.989Z,63.40
2022-11-01T10:21:50.561Z,62.84
2022-11-01T10:24:39.006Z,63.22
2022-11-01T10:27:34.548Z,63.20
2022-11-01T10:30:11.201Z,62.91
2022-11-01T10:32:49.883Z,62.53
2022-11-01T10:35:22.583Z,62.59
2022-11-01T10:38:18.965Z,62.46
2022-11-01T10:41:01.612Z,62.01
2022-11-01T10:43:28.189Z,62.14
2022-11-01T10:45:57.970Z,61.87
2022-11-01T10:48:30.655Z,61.29
2022-11-01T10:51:01.250Z,61.34
2022-11-01T10:53:37.168Z,61.05
2022-11-01T10:56:09.136Z,61.02
2022-11-01T10:59:10.440Z,61.27
2022-11-01T11:01:42.691Z,60.75
2022-11-01T11:04:14.478Z,60.57
2022-11-01T11:06:42.361Z,60.49
2022-11-01T11:09:24.654Z,60.66
2022-11-01T11:11:53.561Z,60.29
2022-11-01T11:14:23.962Z,60.06
2022-11-01T11:16:55.506Z,59.94
2022-11-01T11:19:33.303Z,59.93
2022-11-01T11:22:02.811Z,59.71
2022-11-01T11:24:37.707Z,59.86
2022-11-01T11:27:12.684Z,59.45
2022-11-01T11:29:49.130Z,59.57
2022-11-01T11:32:20.010Z,58.21
2022-11-01T11:35:16.847Z,58.76
2022-11-01T11:37:58.171Z,58.94
2022-11-01T11:40:49.006Z,58.59
2022-11-01T11:43:31.717Z,58.91
2022-11-01T11:46:10.504Z,58.74
2022-11-01T11:48:58.436Z,58.84
2022-11-01T11:51:38.154Z,58.72
2022-11-01T11:54:31.511Z,58.65
2022-11-01T11:57:30.175Z,58.68
2022-11-01T12:00:03.106Z,58.14
2022-11-01T12:02:36.734Z,58.04
2022-11-01T12:05:07.255Z,57.66
2022-11-01T12:07:46.875Z,57.79
2022-11-01T12:10:37.056Z,57.59
2022-11-01T12:13:35.978Z,57.93
2022-11-01T12:16:11.524Z,57.56
2022-11-01T12:18:55.515Z,57.38
2022-11-01T12:21:48.934Z,58.13
2022-11-01T12:24:24.417Z,57.38
2022-11-01T12:26:54.305Z,56.97
2022-11-01T12:29:26.812Z,56.71
2022-11-01T12:31:56.259Z,56.99
2022-11-01T12:34:29.892Z,55.18
2022-11-01T12:37:03.142Z,55.58
2022-11-01T12:39:50.594Z,56.04
2022-11-01T12:42:28.721Z,56.11
2022-11-01T12:45:02.180Z,56.43
2022-11-01T12:47:38.879Z,56.75
2022-11-01T12:50:19.783Z,56.66
2022-11-01T12:52:58.361Z,56.47
2022-11-01T12:55:38.935Z,56.94
2022-11-01T12:58:13.296Z,56.52
2022-11-01T13:00:48.695Z,56.49
2022-11-01T13:03:21.388Z,56.62
2022-11-01T13:06:28.426Z,56.62
2022-11-01T13:09:16.337Z,56.75
2022-11-01T13:11:58.221Z,56.67
2022-11-01T13:14:43.274Z,56.44
2022-11-01T13:17:27.164Z,56.06
2022-11-01T13:20:09.276Z,56.62
2022-11-01T13:22:45.881Z,56.49
2022-11-01T13:25:35.919Z,56.69
2022-11-01T13:28:31.634Z,56.78
2022-11-01T13:31:35.356Z,57.13
2022-11-01T13:34:04.975Z,57.14
2022-11-01T13:37:00.704Z,57.09
2022-11-01T13:39:53.635Z,57.11
2022-11-01T13:42:55.702Z,57.37
2022-11-01T13:45:57.921Z,57.23
2022-11-01T13:48:30.395Z,56.58
2022-11-01T13:51:09.387Z,56.85
2022-11-01T13:53:45.634Z,56.82
2022-11-01T13:56:28.929Z,56.92
2022-11-01T13:58:56.216Z,57.14
2022-11-01T14:01:29.053Z,57.04
2022-11-01T14:04:11.130Z,57.19
2022-11-01T14:06:45.502Z,56.95
2022-11-01T14:09:32.451Z,56.99
2022-11-01T14:12:05.026Z,56.69
2022-11-01T14:14:31.458Z,56.80
2022-11-01T14:17:20.876Z,57.01
2022-11-01T14:19:49.932Z,56.94
2022-11-01T14:22:22.560Z,57.13
2022-11-01T14:24:57.648Z,57.20
2022-11-01T14:27:35.550Z,57.46
2022-11-01T14:30:12.278Z,57.32
2022-11-01T14:32:38.919Z,56.84
2022-11-01T14:35:12.004Z,56.67
2022-11-01T14:37:46.308Z,56.88
2022-11-01T14:40:21.988Z,57.08
2022-11-01T14:42:53.364Z,57.27
2022-11-01T14:45:29.294Z,57.13
2022-11-01T14:48:05.078Z,57.08
2022-11-01T14:50:48.100Z,57.16
2022-11-01T14:53:32.564Z,57.47
2022-11-01T14:56:06.363Z,57.18
2022-11-01T14:58:32.998Z,57.38
2022-11-01T15:01:05.996Z,56.43
2022-11-01T15:03:33.473Z,57.25
2022-11-01T15:06:02.325Z,57.33
2022-11-01T15:08:40.479Z,57.33
2022-11-01T15:11:07.837Z,57.42
2022-11-01T15:13:39.124Z,57.57
2022-11-01T15:16:21.739Z,57.79
2022-11-01T15:18:58.692Z,57.92
2022-11-01T15:21:30.831Z,57.99
2022-11-01T15:23:59.715Z,58.12
2022-11-01T15:26:35.451Z,57.96
2022-11-01T15:29:05.726Z,58.16
2022-11-01T15:31:34.833Z,58.02
2022-11-01T15:34:02.978Z,58.64
2022-11-01T15:36:33.615Z,58.74
2022-11-01T15:39:02.910Z,58.94
2022-11-01T15:41:34.729Z,59.02
2022-11-01T15:44:06.204Z,59.26
2022-11-01T15:46:38.942Z,59.28
2022-11-01T15:49:10.841Z,59.50
2022-11-01T15:51:42.581Z,59.57
2022-11-01T15:54:37.639Z,59.67
2022-11-01T15:57:17.438Z,58.42
2022-11-01T16:00:06.615Z,59.66
2022-11-01T16:02:56.013Z,60.09
2022-11-01T16:05:29.741Z,60.25
2022-11-01T16:07:58.412Z,60.32
2022-11-01T16:10:30.704Z,60.59
2022-11-01T16:12:59.930Z,60.91
2022-11-01T16:15:29.248Z,60.72
2022-11-01T16:17:59.999Z,60.56
2022-11-01T16:20:36.308Z,60.76
2022-11-01T16:23:24.555Z,60.57
2022-11-01T16:26:08.933Z,60.82
2022-11-01T16:28:45.574Z,60.72
2022-11-01T16:31:43.139Z,60.84
2022-11-01T16:34:23.894Z,60.56
2022-11-01T16:36:51.538Z,60.52
2022-11-01T16:39:31.358Z,60.51
2022-11-01T16:41:59.138Z,60.59
2022-11-01T16:44:28.049Z,60.58
2022-11-01T16:46:55.311Z,60.67
2022-11-01T16:49:24.423Z,60.57
2022-11-01T16:51:52.634Z,60.56
2022-11-01T16:54:21.489Z,60.52
2022-11-01T16:57:00.743Z,60.36
2022-11-01T16:59:38.070Z,60.49
2022-11-01T17:02:16.237Z,60.40
2022-11-01T17:04:44.144Z,60.48
2022-11-01T17:07:12.073Z,60.68
2022-11-01T17:09:39.725Z,60.90
2022-11-01T17:12:07.188Z,61.20
2022-11-01T17:14:35.781Z,61.28
2022-11-01T17:17:11.539Z,61.27
2022-11-01T17:19:43.395Z,61.73
2022-11-01T17:22:22.850Z,61.60
2022-11-01T17:24:49.448Z,61.59
2022-11-01T17:27:16.879Z,61.51
2022-11-01T17:29:45.735Z,62.00
2022-11-01T17:32:12.544Z,61.90
2022-11-01T17:34:39.290Z,61.74
2022-11-01T17:37:06.375Z,62.06
2022-11-01T17:39:33.050Z,62.11
2022-11-01T17:42:02.618Z,61.88
2022-11-01T17:44:29.166Z,61.94
2022-11-01T17:46:55.653Z,61.80
2022-11-01T17:49:24.306Z,61.90
2022-11-01T17:51:54.753Z,61.92
2022-11-01T17:56:52.632Z,61.81
2022-11-01T17:59:19.311Z,62.07
2022-11-01T18:01:48.467Z,61.88
2022-11-01T18:04:15.414Z,61.99
2022-11-01T18:06:42.474Z,62.28
2022-11-01T18:09:24.181Z,62.26
2022-11-01T18:12:02.219Z,62.21
2022-11-01T18:14:39.584Z,62.04
2022-11-01T18:17:27.614Z,62.13
2022-11-01T18:20:04.522Z,62.35
2022-11-01T18:23:10.141Z,62.56
2022-11-01T18:25:40.993Z,62.58
2022-11-01T18:28:15.850Z,62.54
2022-11-01T18:30:49.859Z,62.88
2022-11-01T18:33:38.364Z,63.06
2022-11-01T18:36:46.200Z,63.03
2022-11-01T18:39:21.352Z,63.31
2022-11-01T18:41:49.697Z,63.36
2022-11-01T18:44:16.864Z,63.29
2022-11-01T18:46:53.892Z,63.47
2022-11-01T18:49:22.441Z,63.45
2022-11-01T18:51:50.180Z,63.51
2022-11-01T18:54:23.399Z,63.31
2022-11-01T18:56:56.108Z,63.50
2022-11-01T18:59:24.616Z,63.66
2022-11-01T19:02:02.242Z,63.58
2022-11-01T19:04:35.550Z,63.50
2022-11-01T19:07:16.209Z,63.67
2022-11-01T19:09:48.089Z,63.53
2022-11-01T19:12:17.922Z,63.61
2022-11-01T19:14:48.794Z,63.56
2022-11-01T19:17:27.576Z,63.38
2022-11-01T19:19:56.369Z,63.67
2022-11-01T19:22:41.813Z,63.85
2022-11-01T19:25:36.152Z,63.71
2022-11-01T19:28:35.037Z,63.75
2022-11-01T19:31:27.399Z,63.48
2022-11-01T19:33:57.060Z,63.84
2022-11-01T19:36:30.120Z,63.78
2022-11-01T19:38:56.679Z,63.93
2022-11-01T19:41:29.816Z,64.06
2022-11-01T19:43:59.399Z,63.97
2022-11-01T19:46:26.262Z,64.13
2022-11-01T19:48:53.397Z,64.17
2022-11-01T19:51:23.578Z,64.39
2022-11-01T19:53:51.408Z,64.53
2022-11-01T19:56:24.293Z,64.55
2022-11-01T19:58:55.368Z,64.57
2022-11-01T20:01:31.024Z,64.85
2022-11-01T20:04:28.970Z,64.96
2022-11-01T20:07:13.799Z,65.00
2022-11-01T20:09:40.384Z,65.38
2022-11-01T20:12:08.089Z,65.49
2022-11-01T20:14:35.364Z,65.15
2022-11-01T20:17:02.216Z,65.17
2022-11-01T20:19:29.349Z,65.29
2022-11-01T20:21:55.984Z,65.44
2022-11-01T20:24:22.917Z,65.50
2022-11-01T20:26:50.726Z,65.13
2022-11-01T20:29:17.246Z,65.32
2022-11-01T20:31:43.814Z,65.52
2022-11-01T20:34:10.347Z,65.15
2022-11-01T20:36:36.917Z,65.29
2022-11-01T20:39:03.538Z,65.47
2022-11-01T20:41:30.220Z,65.45
2022-11-01T20:43:56.803Z,65.44
2022-11-01T20:46:23.989Z,65.69
2022-11-01T20:48:53.074Z,66.10
2022-11-01T20:51:21.722Z,66.43
2022-11-01T20:53:48.295Z,66.77
2022-11-01T20:56:14.808Z,67.01
2022-11-01T20:58:41.306Z,67.17
2022-11-01T21:01:19.430Z,67.45
2022-11-01T21:03:46.371Z,69.72
2022-11-01T21:06:17.712Z,69.07
2022-11-01T21:08:49.019Z,69.00
2022-11-01T21:11:44.449Z,68.85
2022-11-01T21:14:18.706Z,68.90
2022-11-01T21:16:46.395Z,69.45
2022-11-01T21:19:23.715Z,69.61
2022-11-01T21:21:58.369Z,69.60
2022-11-01T21:24:44.351Z,70.20
2022-11-01T21:27:10.952Z,70.41
2022-11-01T21:29:44.786Z,70.80
2022-11-01T21:32:30.008Z,70.83
2022-11-01T21:34:58.219Z,71.49
2022-11-01T21:37:28.522Z,72.15
2022-11-01T21:40:03.180Z,72.26
2022-11-01T21:42:33.970Z,72.58
2022-11-01T21:45:02.787Z,72.59
2022-11-01T21:47:31.302Z,72.81
2022-11-01T21:49:58.377Z,72.86
2022-11-01T21:52:25.049Z,72.88
2022-11-01T21:54:53.813Z,73.34
2022-11-01T21:57:22.833Z,73.56
2022-11-01T21:59:51.932Z,73.23
2022-11-01T22:02:18.527Z,73.46
2022-11-01T22:04:45.365Z,73.69
2022-11-01T22:07:14.053Z,73.81
2022-11-01T22:09:40.643Z,73.81
2022-11-01T22:12:07.857Z,74.18
2022-11-01T22:14:34.997Z,74.47
2022-11-01T22:17:01.615Z,74.74
2022-11-01T22:19:28.167Z,75.04
2022-11-01T22:21:57.259Z,75.16
2022-11-01T22:24:23.932Z,75.31
2022-11-01T22:26:50.516Z,75.54
2022-11-01T22:29:22.295Z,75.70
2022-11-01T22:31:48.823Z,75.87
2022-11-01T22:34:17.735Z,76.14
2022-11-01T22:36:44.260Z,76.23
2022-11-01T22:39:17.045Z,76.44
2022-11-01T22:41:43.934Z,76.63
2022-11-01T22:44:14.400Z,76.77
2022-11-01T22:46:53.652Z,77.00
2022-11-01T22:49:30.914Z,76.59
2022-11-01T22:52:16.990Z,76.97
2022-11-01T22:54:49.822Z,76.99
2022-11-01T22:57:23.634Z,77.16
2022-11-01T22:59:53.362Z,77.38
2022-11-01T23:02:28.892Z,77.47
2022-11-01T23:05:07.736Z,77.70
2022-11-01T23:07:35.748Z,77.77
2022-11-01T23:10:34.950Z,77.42
2022-11-01T23:13:51.524Z,77.48
2022-11-01T23:16:21.110Z,77.03
2022-11-01T23:18:48.150Z,76.94
2022-11-01T23:21:14.731Z,77.05
2022-11-01T23:23:44.973Z,76.68
2022-11-01T23:26:12.961Z,76.50
2022-11-01T23:28:48.758Z,76.36
2022-11-01T23:31:16.384Z,75.74
2022-11-01T23:33:48.634Z,75.64
2022-11-01T23:36:15.111Z,75.45
2022-11-01T23:38:49.696Z,75.20
2022-11-01T23:41:22.682Z,75.17
2022-11-01T23:43:52.085Z,75.00
2022-11-01T23:46:19.405Z,74.70
2022-11-01T23:48:46.985Z,74.53
2022-11-01T23:51:20.958Z,74.27
2022-11-01T23:53:51.242Z,74.15
2022-11-01T23:56:19.604Z,74.00
2022-11-01T23:58:54.107Z,74.10
